Time;durP1;ratioP1;P1;durP2;ratioP2;P2;SDS_P1;SDS_P2;PMS_P1;PMS_P2;Temp;Humidity;BMP_temperature;BMP_pressure;BME280_temperature;BME280_humidity;BME280_pressure;Samples;Min_cycle;Max_cycle;Signal;HPM_P1;HPM_P2
2023/04/19 00:02:17;;;;;;;11.02;5.70;;;8.90;99.90;;;;;;5032747;28;20503;-80
2023/04/19 00:04:43;;;;;;;9.13;6.00;;;8.60;99.90;;;;;;5033054;28;20052;-76
2023/04/19 00:07:09;;;;;;;13.13;5.55;;;8.20;99.90;;;;;;5032523;28;20054;-76
2023/04/19 00:09:35;;;;;;;9.18;5.07;;;8.10;99.90;;;;;;5032737;28;20052;-77
2023/04/19 00:12:02;;;;;;;8.07;5.28;;;8.90;99.90;;;;;;5032275;28;20053;-77
2023/04/19 00:14:28;;;;;;;8.52;5.10;;;8.80;99.90;;;;;;5032825;28;20095;-76
2023/04/19 00:16:53;;;;;;;8.25;5.45;;;8.10;99.90;;;;;;5032275;28;20488;-76
2023/04/19 00:19:20;;;;;;;8.80;5.22;;;8.20;99.90;;;;;;5032328;28;20099;-76
2023/04/19 00:21:46;;;;;;;10.48;5.82;;;8.10;99.90;;;;;;5032369;28;20112;-76
2023/04/19 00:24:12;;;;;;;9.82;5.60;;;8.00;99.90;;;;;;5032637;28;20044;-77
2023/04/19 00:26:37;;;;;;;8.45;5.15;;;8.10;99.90;;;;;;5032237;28;20037;-77
2023/04/19 00:29:03;;;;;;;9.40;5.65;;;8.70;99.90;;;;;;5032618;28;20037;-78
2023/04/19 00:31:29;;;;;;;8.20;5.47;;;8.00;99.90;;;;;;5032308;28;20468;-78
2023/04/19 00:33:55;;;;;;;9.32;6.07;;;8.50;99.90;;;;;;5032613;28;20053;-77
2023/04/19 00:36:20;;;;;;;9.63;6.03;;;8.00;99.90;;;;;;5032804;28;20092;-78
2023/04/19 00:38:46;;;;;;;8.35;5.57;;;7.90;99.90;;;;;;5032325;28;20735;-76
2023/04/19 00:41:12;;;;;;;10.20;6.90;;;7.90;99.90;;;;;;5032352;28;20522;-76
2023/04/19 00:43:37;;;;;;;8.48;5.55;;;8.30;99.90;;;;;;5032394;28;20060;-80
2023/04/19 00:46:04;;;;;;;10.95;6.15;;;7.90;99.90;;;;;;5032192;28;20072;-79
2023/04/19 00:48:30;;;;;;;10.27;5.57;;;7.80;99.90;;;;;;5032240;28;20583;-77
2023/04/19 00:50:56;;;;;;;9.93;6.00;;;7.90;99.90;;;;;;5031992;28;20128;-76
2023/04/19 00:53:21;;;;;;;9.88;6.00;;;8.00;99.90;;;;;;5031746;28;20409;-78
2023/04/19 00:55:50;;;;;;;11.95;6.53;;;8.40;99.90;;;;;;5031889;28;20041;-77
2023/04/19 00:58:16;;;;;;;12.25;6.35;;;7.80;99.90;;;;;;5031793;28;20575;-76
2023/04/19 01:00:43;;;;;;;9.75;6.47;;;7.80;99.90;;;;;;5031917;28;20497;-78
2023/04/19 01:03:09;;;;;;;11.25;6.72;;;7.80;99.90;;;;;;5031787;28;20045;-79
2023/04/19 01:05:34;;;;;;;10.25;6.38;;;8.60;99.90;;;;;;5031921;28;20045;-79
2023/04/19 01:08:00;;;;;;;13.13;6.97;;;7.70;99.90;;;;;;5031739;28;20481;-77
2023/04/19 01:10:26;;;;;;;13.65;7.57;;;8.60;99.90;;;;;;5032178;28;20457;-76
2023/04/19 01:12:52;;;;;;;12.18;6.88;;;8.50;99.90;;;;;;5031586;28;20580;-76
2023/04/19 01:15:18;;;;;;;13.40;7.63;;;7.70;99.90;;;;;;5031509;28;20064;-76
2023/04/19 01:17:43;;;;;;;10.68;6.93;;;7.70;99.90;;;;;;5031212;28;20045;-76
2023/04/19 01:20:10;;;;;;;12.88;6.93;;;8.00;99.90;;;;;;5031391;28;20057;-76
2023/04/19 01:22:39;;;;;;;10.20;7.38;;;7.70;99.90;;;;;;5030932;28;20050;-76
2023/04/19 01:25:06;;;;;;;13.38;7.65;;;7.70;99.90;;;;;;5031592;28;20041;-76
2023/04/19 01:27:32;;;;;;;12.95;8.48;;;7.70;99.90;;;;;;5031080;28;20053;-76
2023/04/19 01:29:57;;;;;;;11.27;7.20;;;7.70;99.90;;;;;;5031350;28;20048;-78
2023/04/19 01:32:25;;;;;;;13.52;7.70;;;7.70;99.90;;;;;;5031216;28;20053;-77
2023/04/19 01:34:51;;;;;;;12.20;7.60;;;7.60;99.90;;;;;;5031146;28;20400;-76
2023/04/19 01:37:17;;;;;;;14.55;7.90;;;8.30;99.90;;;;;;5030882;28;20541;-76
2023/04/19 01:39:42;;;;;;;11.60;7.70;;;7.60;99.90;;;;;;5030548;28;20049;-77
2023/04/19 01:42:08;;;;;;;13.52;8.70;;;8.10;99.90;;;;;;5030384;28;20428;-75
2023/04/19 01:44:34;;;;;;;14.23;8.68;;;7.60;99.90;;;;;;5030986;28;20377;-78
2023/04/19 01:46:59;;;;;;;13.55;8.77;;;7.60;99.90;;;;;;5030599;28;20073;-76
2023/04/19 01:49:25;;;;;;;14.98;8.35;;;7.60;99.90;;;;;;5030706;28;20050;-78
2023/04/19 01:51:51;;;;;;;17.67;9.52;;;7.60;99.90;;;;;;5030626;28;20538;-76
2023/04/19 01:54:16;;;;;;;15.27;9.32;;;7.50;99.90;;;;;;5030644;28;20435;-75
2023/04/19 01:56:42;;;;;;;13.60;8.85;;;8.40;99.90;;;;;;5030571;28;20049;-76
2023/04/19 01:59:07;;;;;;;15.98;10.05;;;8.00;99.90;;;;;;5030271;28;20041;-78
2023/04/19 02:01:33;;;;;;;16.08;9.88;;;7.50;99.90;;;;;;5029969;28;20041;-76
2023/04/19 02:04:01;;;;;;;16.88;10.32;;;7.50;99.90;;;;;;5030157;28;20045;-76
2023/04/19 02:06:27;;;;;;;16.48;9.38;;;7.50;99.90;;;;;;5030504;28;20041;-76
2023/04/19 02:08:52;;;;;;;13.63;9.10;;;8.30;99.90;;;;;;5030370;28;20044;-78
2023/04/19 02:11:18;;;;;;;13.60;9.10;;;8.40;99.90;;;;;;5023801;28;20042;-76
2023/04/19 02:13:44;;;;;;;14.15;9.18;;;7.40;99.90;;;;;;5029779;28;20052;-78
2023/04/19 02:16:10;;;;;;;13.40;8.57;;;7.50;99.90;;;;;;5030296;28;20321;-76
2023/04/19 02:18:39;;;;;;;15.25;9.45;;;7.40;99.90;;;;;;5030079;28;20072;-75
2023/04/19 02:21:06;;;;;;;16.92;9.40;;;7.40;99.90;;;;;;5030240;28;20040;-76
2023/04/19 02:23:31;;;;;;;17.80;9.23;;;7.40;99.90;;;;;;5004780;28;20049;-76
2023/04/19 02:25:57;;;;;;;16.40;8.23;;;7.40;99.90;;;;;;5029136;28;20096;-80
2023/04/19 02:28:23;;;;;;;14.57;8.45;;;7.30;99.90;;;;;;5029543;28;20771;-76
2023/04/19 02:30:48;;;;;;;13.10;8.65;;;7.30;99.90;;;;;;5029668;28;20484;-74
2023/04/19 02:33:14;;;;;;;13.43;8.18;;;7.30;99.90;;;;;;5030013;28;20061;-76
2023/04/19 02:35:40;;;;;;;17.80;8.73;;;7.20;99.90;;;;;;5029950;28;20049;-75
2023/04/19 02:38:06;;;;;;;15.20;8.63;;;7.20;99.90;;;;;;5011659;28;20508;-77
2023/04/19 02:40:31;;;;;;;13.93;8.93;;;8.00;99.90;;;;;;5029122;28;20045;-76
2023/04/19 02:42:57;;;;;;;15.15;8.93;;;7.20;99.90;;;;;;5029649;28;20128;-76
2023/04/19 02:45:23;;;;;;;12.43;7.85;;;7.20;99.90;;;;;;5029495;28;20100;-77
2023/04/19 02:47:48;;;;;;;13.88;8.18;;;7.20;99.90;;;;;;5029588;28;20045;-75
2023/04/19 02:50:15;;;;;;;14.68;8.27;;;7.10;99.90;;;;;;5029963;28;20038;-78
2023/04/19 02:52:41;;;;;;;12.18;7.47;;;7.10;99.90;;;;;;5028783;28;20057;-76
2023/04/19 02:55:07;;;;;;;12.95;7.68;;;7.10;99.90;;;;;;5029422;28;20056;-79
2023/04/19 02:57:33;;;;;;;14.60;7.78;;;7.00;99.90;;;;;;5029916;28;20496;-78
2023/04/19 02:59:59;;;;;;;15.88;6.97;;;7.00;99.90;;;;;;5029556;28;20044;-77
2023/04/19 03:02:24;;;;;;;9.70;6.90;;;6.90;99.90;;;;;;5029326;28;20509;-77
2023/04/19 03:04:51;;;;;;;10.65;6.75;;;7.70;99.90;;;;;;5029308;28;20088;-78
2023/04/19 03:07:17;;;;;;;11.65;6.30;;;7.50;99.90;;;;;;5029586;28;20096;-77
2023/04/19 03:09:43;;;;;;;10.13;6.20;;;7.50;99.90;;;;;;5029280;28;20046;-79
2023/04/19 03:12:09;;;;;;;10.80;6.25;;;6.80;99.90;;;;;;5028666;28;20053;-77
2023/04/19 03:14:35;;;;;;;12.80;6.47;;;6.80;99.90;;;;;;5029232;28;20112;-77
2023/04/19 03:17:01;;;;;;;10.75;6.47;;;7.60;99.90;;;;;;5029687;28;20068;-77
2023/04/19 03:19:27;;;;;;;8.65;5.47;;;6.70;99.90;;;;;;5029414;28;20049;-77
2023/04/19 03:21:53;;;;;;;12.77;6.45;;;6.70;99.90;;;;;;5029790;28;20037;-79
2023/04/19 03:24:19;;;;;;;10.48;5.85;;;6.70;99.90;;;;;;5011356;28;20104;-77
2023/04/19 03:26:45;;;;;;;10.32;6.20;;;6.60;99.90;;;;;;4994736;28;20116;-77
2023/04/19 03:29:13;;;;;;;10.18;6.32;;;6.60;99.90;;;;;;5029175;28;20711;-76
2023/04/19 03:31:38;;;;;;;8.63;5.70;;;6.50;99.90;;;;;;5021253;28;20384;-77
2023/04/19 03:34:04;;;;;;;13.13;6.00;;;6.60;99.90;;;;;;5029401;28;20049;-79
2023/04/19 03:36:30;;;;;;;9.65;5.68;;;7.20;99.90;;;;;;5029146;28;20041;-77
2023/04/19 03:38:55;;;;;;;11.98;6.35;;;6.50;99.90;;;;;;5029116;28;20141;-77
2023/04/19 03:41:25;;;;;;;9.02;6.05;;;6.40;99.90;;;;;;5028727;28;20121;-75
2023/04/19 03:43:51;;;;;;;10.65;5.88;;;6.40;99.90;;;;;;5021368;28;20041;-77
2023/04/19 03:46:17;;;;;;;11.50;5.95;;;7.10;99.90;;;;;;5029080;28;20488;-76
2023/04/19 03:48:42;;;;;;;12.05;6.30;;;6.40;99.90;;;;;;5029247;28;20041;-78
2023/04/19 03:51:08;;;;;;;10.90;6.03;;;6.90;99.90;;;;;;5029126;28;20144;-78
2023/04/19 03:53:35;;;;;;;8.95;5.50;;;7.00;99.90;;;;;;5028791;28;20144;-76
2023/04/19 03:56:01;;;;;;;11.77;6.47;;;7.10;99.90;;;;;;5007318;28;20052;-77
2023/04/19 03:58:27;;;;;;;9.98;5.50;;;7.00;99.90;;;;;;5029138;28;20045;-78
2023/04/19 04:00:52;;;;;;;12.93;5.68;;;6.20;99.90;;;;;;5028867;28;20496;-79
2023/04/19 04:03:18;;;;;;;10.82;5.60;;;6.60;99.90;;;;;;5028978;28;20400;-77
2023/04/19 04:05:44;;;;;;;9.18;5.80;;;6.30;99.90;;;;;;5032842;28;20042;-77
2023/04/19 04:08:10;;;;;;;11.63;5.90;;;6.10;99.90;;;;;;5032545;28;20154;-77
2023/04/19 04:10:36;;;;;;;10.02;5.50;;;6.90;99.90;;;;;;5014517;28;20050;-78
2023/04/19 04:13:01;;;;;;;11.75;6.55;;;6.00;99.90;;;;;;5013449;28;20057;-77
2023/04/19 04:15:27;;;;;;;11.15;6.15;;;6.60;99.90;;;;;;5020955;28;20042;-76
2023/04/19 04:17:53;;;;;;;12.68;6.60;;;6.00;99.90;;;;;;5021033;28;20048;-78
2023/04/19 04:20:19;;;;;;;11.48;6.10;;;6.00;99.90;;;;;;5023111;28;20052;-77
2023/04/19 04:22:48;;;;;;;9.95;5.95;;;5.90;99.90;;;;;;5024252;28;20037;-77
2023/04/19 04:25:14;;;;;;;12.45;6.03;;;5.90;99.90;;;;;;5021339;28;20476;-77
2023/04/19 04:27:41;;;;;;;11.27;6.00;;;6.70;99.90;;;;;;5020718;28;20658;-76
2023/04/19 04:30:08;;;;;;;8.82;5.40;;;6.80;99.90;;;;;;5020887;28;20135;-78
2023/04/19 04:32:34;;;;;;;9.73;5.88;;;5.80;99.90;;;;;;5023824;28;20439;-75
2023/04/19 04:35:04;;;;;;;10.27;6.25;;;6.60;99.90;;;;;;5024143;28;20401;-77
2023/04/19 04:37:34;;;;;;;10.82;5.60;;;5.80;99.90;;;;;;5013605;28;20117;-77
2023/04/19 04:40:00;;;;;;;12.65;5.40;;;6.50;99.90;;;;;;5021625;28;20176;-77
2023/04/19 04:42:26;;;;;;;9.93;5.90;;;5.80;99.90;;;;;;5020424;28;20659;-77
2023/04/19 04:44:56;;;;;;;9.93;5.40;;;5.80;99.90;;;;;;5020777;28;20049;-79
2023/04/19 04:47:22;;;;;;;10.77;5.38;;;5.80;99.90;;;;;;5020552;28;20405;-81
2023/04/19 04:49:48;;;;;;;10.80;5.70;;;5.80;99.90;;;;;;5023137;28;20052;-77
2023/04/19 04:52:14;;;;;;;9.43;5.60;;;5.80;99.90;;;;;;5017887;28;20498;-77
2023/04/19 04:54:39;;;;;;;9.13;5.40;;;5.80;99.90;;;;;;5019947;28;20485;-77
2023/04/19 04:57:05;;;;;;;11.55;5.30;;;5.70;99.90;;;;;;5023410;28;20073;-77
2023/04/19 04:59:31;;;;;;;9.77;5.43;;;6.00;99.90;;;;;;5023689;28;20045;-76
2023/04/19 05:01:57;;;;;;;10.48;5.47;;;5.80;99.90;;;;;;5021208;28;20084;-75
2023/04/19 05:04:23;;;;;;;9.43;5.22;;;5.80;99.90;;;;;;5020258;28;20461;-76
2023/04/19 05:06:49;;;;;;;7.50;4.78;;;5.80;99.90;;;;;;5020053;28;20041;-76
2023/04/19 05:09:14;;;;;;;10.48;4.88;;;6.40;99.90;;;;;;5022994;28;20466;-76
2023/04/19 05:11:40;;;;;;;8.77;4.85;;;6.20;99.90;;;;;;5018258;28;20041;-75
2023/04/19 05:14:06;;;;;;;10.27;5.40;;;5.80;99.90;;;;;;5031326;28;20470;-75
2023/04/19 05:16:32;;;;;;;17.55;4.80;;;5.80;99.90;;;;;;5030624;28;20048;-76
2023/04/19 05:18:57;;;;;;;14.68;4.70;;;5.80;99.90;;;;;;5031343;28;20045;-76
2023/04/19 05:21:23;;;;;;;12.25;4.97;;;5.80;99.90;;;;;;5031278;28;20049;-76
2023/04/19 05:23:52;;;;;;;11.68;5.30;;;5.90;99.90;;;;;;5031275;28;20045;-75
2023/04/19 05:26:18;;;;;;;8.57;4.20;;;6.60;99.90;;;;;;5031082;28;20472;-76
2023/04/19 05:28:43;;;;;;;8.80;4.45;;;5.90;99.90;;;;;;5031254;28;20508;-77
2023/04/19 05:31:09;;;;;;;6.72;4.40;;;5.90;99.90;;;;;;5031006;28;20038;-75
2023/04/19 05:33:35;;;;;;;7.57;3.97;;;6.70;99.90;;;;;;5030960;28;20081;-76
2023/04/19 05:36:01;;;;;;;8.85;4.32;;;6.70;99.90;;;;;;5031080;28;20092;-77
2023/04/19 05:38:26;;;;;;;6.75;4.40;;;6.70;99.90;;;;;;5030994;28;20045;-76
2023/04/19 05:40:52;;;;;;;7.53;4.32;;;6.10;99.90;;;;;;5030873;28;20041;-76
2023/04/19 05:43:18;;;;;;;7.93;4.40;;;6.10;99.90;;;;;;5031047;28;20049;-77
2023/04/19 05:45:43;;;;;;;6.90;3.97;;;7.10;99.90;;;;;;5031202;28;20053;-75
2023/04/19 05:48:09;;;;;;;8.15;4.30;;;6.60;99.90;;;;;;5030159;28;20484;-78
2023/04/19 05:50:35;;;;;;;11.38;4.30;;;6.40;99.90;;;;;;5031270;28;20042;-75
2023/04/19 05:53:02;;;;;;;8.38;3.83;;;7.00;99.90;;;;;;5031460;28;20049;-75
2023/04/19 05:55:27;;;;;;;8.88;3.85;;;6.30;99.90;;;;;;5031174;28;20128;-75
2023/04/19 05:57:53;;;;;;;10.15;4.82;;;6.40;99.90;;;;;;5031075;28;20136;-77
2023/04/19 06:00:19;;;;;;;9.52;4.22;;;6.40;99.90;;;;;;5031315;28;20053;-79
2023/04/19 06:02:45;;;;;;;7.82;4.07;;;6.50;99.90;;;;;;5030276;28;20099;-78
2023/04/19 06:05:11;;;;;;;8.07;4.30;;;6.50;99.90;;;;;;5030729;28;20041;-76
2023/04/19 06:07:37;;;;;;;15.70;4.05;;;6.60;99.90;;;;;;5030816;28;20038;-76
2023/04/19 06:10:03;;;;;;;7.28;3.90;;;7.40;99.90;;;;;;5030059;28;20679;-77
2023/04/19 06:12:28;;;;;;;9.80;4.10;;;6.70;99.90;;;;;;5030392;28;20061;-78
2023/04/19 06:14:54;;;;;;;10.15;4.40;;;6.70;99.90;;;;;;5030389;28;20057;-79
2023/04/19 06:17:23;;;;;;;6.13;3.78;;;6.80;99.90;;;;;;5021855;28;20045;-74
2023/04/19 06:19:50;;;;;;;5.80;3.33;;;6.80;99.90;;;;;;5030394;28;20404;-75
2023/04/19 06:22:16;;;;;;;8.43;3.88;;;7.50;99.90;;;;;;5029868;28;20045;-76
2023/04/19 06:24:44;;;;;;;5.90;3.47;;;7.10;99.90;;;;;;5029951;28;20046;-75
2023/04/19 06:27:10;;;;;;;7.55;3.60;;;7.00;99.90;;;;;;5030391;28;20388;-75
2023/04/19 06:29:36;;;;;;;8.48;3.60;;;7.80;99.90;;;;;;5030129;28;20041;-75
2023/04/19 06:32:02;;;;;;;8.02;3.10;;;7.10;99.90;;;;;;5030282;28;20033;-74
2023/04/19 06:34:28;;;;;;;6.57;3.40;;;7.10;99.90;;;;;;5029593;28;20128;-76
2023/04/19 06:36:53;;;;;;;7.88;3.15;;;7.20;99.90;;;;;;5029945;28;20037;-75
2023/04/19 06:39:19;;;;;;;5.45;3.00;;;7.60;99.90;;;;;;5029766;28;20400;-76
2023/04/19 06:41:45;;;;;;;8.10;3.17;;;7.30;99.90;;;;;;5030347;28;20030;-76
2023/04/19 06:44:12;;;;;;;6.25;2.63;;;7.30;99.90;;;;;;5029780;28;20099;-76
2023/04/19 06:46:38;;;;;;;9.15;3.05;;;7.40;99.90;;;;;;5030422;28;20124;-78
2023/04/19 06:49:03;;;;;;;7.03;3.13;;;7.50;99.90;;;;;;5030140;28;20041;-76
2023/04/19 06:51:29;;;;;;;10.57;3.03;;;7.50;99.90;;;;;;5029904;28;20038;-76
2023/04/19 06:53:55;;;;;;;7.18;2.88;;;8.20;99.90;;;;;;5029231;28;20041;-75
2023/04/19 06:56:47;;;;;;;5.03;2.90;;;7.90;99.90;;;;;;5029924;28;20739;-76
2023/04/19 06:59:17;;;;;;;4.97;2.80;;;7.60;99.90;;;;;;5022889;28;20091;-78
2023/04/19 07:01:44;;;;;;;7.45;3.05;;;7.70;99.90;;;;;;5027085;28;20441;-80
2023/04/19 07:04:10;;;;;;;5.25;2.83;;;7.80;99.90;;;;;;5029232;28;20072;-78
2023/04/19 07:06:37;;;;;;;6.43;2.85;;;8.60;99.90;;;;;;5011341;28;20053;-76
2023/04/19 07:09:04;;;;;;;9.52;3.00;;;8.90;99.90;;;;;;5029547;28;20429;-77
2023/04/19 07:11:30;;;;;;;6.43;3.40;;;8.60;99.90;;;;;;5029355;28;20132;-75
2023/04/19 07:13:56;;;;;;;4.55;2.83;;;8.90;99.90;;;;;;5029430;28;20064;-76
2023/04/19 07:16:21;;;;;;;5.90;2.42;;;8.20;99.90;;;;;;5029555;28;20045;-79
2023/04/19 07:18:47;;;;;;;6.78;2.78;;;8.40;99.90;;;;;;5029334;28;20107;-79
2023/04/19 07:21:13;;;;;;;5.07;2.90;;;8.70;99.90;;;;;;5029413;28;20389;-81
2023/04/19 07:23:39;;;;;;;4.25;2.40;;;8.40;99.90;;;;;;5029536;28;20042;-77
2023/04/19 07:26:05;;;;;;;6.88;2.40;;;8.40;99.90;;;;;;5029442;28;20041;-77
2023/04/19 07:28:31;;;;;;;4.78;2.42;;;9.20;99.90;;;;;;5029698;28;20048;-77
2023/04/19 07:30:57;;;;;;;7.10;2.30;;;9.30;99.90;;;;;;5029955;28;20041;-77
2023/04/19 07:33:26;;;;;;;3.80;2.05;;;8.80;99.90;;;;;;5029182;28;20575;-76
2023/04/19 07:35:52;;;;;;;6.05;2.40;;;9.10;99.90;;;;;;5029539;28;20037;-77
2023/04/19 07:38:18;;;;;;;6.82;1.95;;;9.70;99.90;;;;;;5030092;28;20045;-76
2023/04/19 07:40:44;;;;;;;4.57;2.33;;;9.80;99.90;;;;;;5033186;28;20049;-78
2023/04/19 07:43:10;;;;;;;2.85;1.67;;;9.10;99.90;;;;;;5033185;28;20447;-78
2023/04/19 07:45:36;;;;;;;5.75;2.03;;;9.40;99.90;;;;;;5032839;28;20112;-76
2023/04/19 07:48:02;;;;;;;6.32;2.28;;;9.90;99.90;;;;;;5012838;28;20078;-77
2023/04/19 07:50:27;;;;;;;4.30;1.98;;;9.50;99.90;;;;;;5015436;28;20462;-79
2023/04/19 07:52:53;;;;;;;4.60;2.17;;;9.60;99.90;;;;;;5032880;28;20049;-78
2023/04/19 07:55:19;;;;;;;4.20;1.80;;;9.90;99.90;;;;;;5032938;28;20460;-76
2023/04/19 07:57:47;;;;;;;6.07;2.33;;;9.80;99.90;;;;;;5032776;28;20060;-76
2023/04/19 08:00:17;;;;;;;3.97;2.00;;;10.60;99.90;;;;;;5012101;28;20097;-78
2023/04/19 08:02:44;;;;;;;11.13;2.17;;;10.00;99.90;;;;;;5029335;28;20051;-75
2023/04/19 08:05:11;;;;;;;5.97;2.13;;;10.20;99.90;;;;;;5031863;28;20136;-81
2023/04/19 08:07:37;;;;;;;5.32;2.00;;;10.30;99.90;;;;;;5032166;28;20045;-76
2023/04/19 08:10:04;;;;;;;6.10;2.10;;;10.70;99.90;;;;;;5031882;28;20038;-75
2023/04/19 08:12:30;;;;;;;5.38;2.10;;;10.70;99.90;;;;;;5032815;28;20068;-75
2023/04/19 08:14:56;;;;;;;3.83;2.33;;;11.00;99.90;;;;;;5032859;28;20053;-75
2023/04/19 08:17:23;;;;;;;5.47;2.55;;;11.60;99.90;;;;;;5024162;28;20148;-77
2023/04/19 08:19:49;;;;;;;6.25;2.28;;;11.80;99.90;;;;;;5011236;28;20116;-80
2023/04/19 08:22:16;;;;;;;6.40;2.13;;;11.70;99.90;;;;;;5032315;28;20110;-83
2023/04/19 08:24:43;;;;;;;7.13;2.13;;;11.60;99.90;;;;;;5032045;28;20037;-77
2023/04/19 08:27:10;;;;;;;3.83;2.10;;;12.30;99.90;;;;;;5032280;28;20045;-77
2023/04/19 08:29:37;;;;;;;7.75;1.70;;;11.80;99.90;;;;;;5032665;28;20042;-77
2023/04/19 08:32:04;;;;;;;3.60;1.77;;;12.80;99.90;;;;;;5031684;28;20045;-79
2023/04/19 08:34:30;;;;;;;4.15;1.95;;;12.00;99.90;;;;;;5012673;28;20057;-80
2023/04/19 08:36:56;;;;;;;4.90;1.92;;;12.50;99.90;;;;;;5032134;28;20113;-78
2023/04/19 08:39:22;;;;;;;4.13;1.75;;;12.90;99.90;;;;;;5032096;28;20548;-77
2023/04/19 08:41:48;;;;;;;3.85;1.88;;;12.50;99.80;;;;;;5031805;28;20504;-78
2023/04/19 08:44:16;;;;;;;5.38;1.90;;;12.60;99.90;;;;;;5032299;28;20033;-79
2023/04/19 08:46:42;;;;;;;5.00;2.03;;;12.70;99.90;;;;;;5032065;28;20045;-77
2023/04/19 08:49:09;;;;;;;3.72;1.70;;;12.70;99.70;;;;;;5031800;28;20542;-76
2023/04/19 08:51:37;;;;;;;3.25;2.00;;;12.80;99.90;;;;;;5030503;28;20461;-78
2023/04/19 08:54:06;;;;;;;3.38;1.67;;;12.90;99.50;;;;;;5031869;28;20488;-76
2023/04/19 08:56:32;;;;;;;3.85;1.75;;;12.90;99.80;;;;;;5031420;28;20068;-78
2023/04/19 08:58:57;;;;;;;3.17;1.60;;;13.40;99.20;;;;;;5031741;28;20080;-78
2023/04/19 09:01:23;;;;;;;4.07;1.65;;;13.20;99.60;;;;;;5031933;28;20045;-80
2023/04/19 09:03:49;;;;;;;3.35;1.67;;;13.20;98.70;;;;;;5031109;28;20392;-80
2023/04/19 09:06:15;;;;;;;5.03;1.60;;;13.20;98.70;;;;;;5013854;28;20069;-75
2023/04/19 09:08:41;;;;;;;3.05;1.40;;;13.70;98.60;;;;;;5032009;28;20057;-83
2023/04/19 09:11:07;;;;;;;3.28;1.55;;;13.60;98.90;;;;;;5031549;28;20052;-82
2023/04/19 09:13:37;;;;;;;4.90;1.65;;;13.70;98.20;;;;;;5031622;28;20080;-79
2023/04/19 09:16:04;;;;;;;3.88;1.70;;;13.70;97.80;;;;;;5031711;28;20079;-83
2023/04/19 09:18:30;;;;;;;3.42;1.73;;;13.70;97.30;;;;;;5031285;28;20046;-78
2023/04/19 09:20:59;;;;;;;5.63;1.85;;;14.00;98.10;;;;;;5031357;28;20052;-78
2023/04/19 09:23:29;;;;;;;3.65;1.50;;;14.10;98.30;;;;;;5031439;28;20550;-79
2023/04/19 09:25:56;;;;;;;3.20;1.30;;;14.20;96.90;;;;;;4993439;28;20054;-77
2023/04/19 09:28:22;;;;;;;2.83;1.27;;;14.20;96.60;;;;;;5030035;28;20056;-78
2023/04/19 09:30:48;;;;;;;1.85;1.10;;;14.20;96.50;;;;;;5030651;28;20041;-83
2023/04/19 09:33:34;;;;;;;2.50;1.45;;;14.00;96.70;;;;;;5031309;28;20037;-83
2023/04/19 09:36:01;;;;;;;3.50;1.20;;;14.60;95.60;;;;;;5025642;28;20109;-78
2023/04/19 09:38:26;;;;;;;7.05;1.80;;;14.70;95.70;;;;;;5031380;28;20045;-79
2023/04/19 09:41:05;;;;;;;5.53;1.05;;;14.80;95.90;;;;;;5031394;28;20037;-77
2023/04/19 09:43:31;;;;;;;3.03;1.42;;;14.70;94.10;;;;;;5031052;28;20046;-79
2023/04/19 09:45:56;;;;;;;4.38;1.50;;;14.70;92.60;;;;;;5013442;28;20076;-77
2023/04/19 09:48:22;;;;;;;5.63;1.15;;;14.80;93.90;;;;;;4997321;28;20053;-77
2023/04/19 09:50:56;;;;;;;2.85;1.27;;;15.00;94.10;;;;;;5030985;28;20037;-78
2023/04/19 09:53:23;;;;;;;3.47;1.17;;;14.90;93.40;;;;;;5031009;28;20188;-77
2023/04/19 09:55:49;;;;;;;3.78;1.40;;;15.00;93.70;;;;;;4996359;28;20130;-79
2023/04/19 09:58:18;;;;;;;7.13;1.10;;;15.10;93.70;;;;;;5010125;28;20053;-81
2023/04/19 10:00:49;;;;;;;3.58;1.20;;;15.20;94.00;;;;;;5028224;28;20056;-80
2023/04/19 10:03:16;;;;;;;2.72;1.20;;;15.40;93.90;;;;;;5030985;28;20420;-84
2023/04/19 10:05:42;;;;;;;3.90;1.20;;;15.30;93.00;;;;;;5031074;28;20488;-78
2023/04/19 10:08:09;;;;;;;1.98;0.85;;;15.40;92.50;;;;;;5013306;28;20060;-79
2023/04/19 10:10:35;;;;;;;3.90;1.45;;;15.40;91.90;;;;;;5031524;28;20041;-78
2023/04/19 10:13:07;;;;;;;3.03;1.00;;;15.40;90.40;;;;;;5006047;28;20091;-79
2023/04/19 10:15:35;;;;;;;5.78;1.02;;;15.40;90.90;;;;;;4993621;28;20428;-78
2023/04/19 10:18:02;;;;;;;1.65;0.95;;;15.60;91.80;;;;;;5010769;28;20373;-84
2023/04/19 10:20:48;;;;;;;2.50;1.08;;;15.70;92.20;;;;;;5010731;28;20037;-80
2023/04/19 10:23:14;;;;;;;2.55;1.40;;;15.80;90.80;;;;;;5009523;28;20121;-79
2023/04/19 10:25:45;;;;;;;3.35;1.20;;;15.80;92.00;;;;;;4993011;28;20038;-81
2023/04/19 10:28:11;;;;;;;2.83;1.25;;;15.80;90.80;;;;;;4992887;28;20038;-78
2023/04/19 10:31:00;;;;;;;2.15;1.10;;;15.90;91.30;;;;;;5010858;28;20362;-77
2023/04/19 10:33:30;;;;;;;2.42;1.10;;;15.90;88.90;;;;;;4992856;28;20077;-79
2023/04/19 10:35:58;;;;;;;4.18;1.23;;;15.80;90.30;;;;;;5010135;28;20049;-76
2023/04/19 10:38:48;;;;;;;2.65;1.10;;;15.80;90.70;;;;;;4992336;28;20041;-77
2023/04/19 10:41:16;;;;;;;3.97;1.10;;;15.90;88.70;;;;;;5010755;28;20096;-79
2023/04/19 10:43:49;;;;;;;1.88;0.98;;;15.90;90.40;;;;;;5010769;28;20050;-78
2023/04/19 10:46:20;;;;;;;5.97;1.23;;;16.00;89.80;;;;;;5010367;28;20049;-78
2023/04/19 10:48:53;;;;;;;9.02;1.38;;;15.90;86.70;;;;;;5009702;28;20085;-79
2023/04/19 10:51:41;;;;;;;5.60;1.30;;;16.00;87.80;;;;;;4948873;29;20218;-77
2023/04/19 10:54:31;;;;;;;1.95;0.75;;;15.90;86.60;;;;;;4901420;29;20103;-78
2023/04/19 10:57:03;;;;;;;1.80;1.00;;;16.00;86.10;;;;;;4949155;29;20510;-78
2023/04/19 10:59:33;;;;;;;2.70;1.02;;;16.10;88.80;;;;;;4949069;29;20051;-78
2023/04/19 11:02:01;;;;;;;4.45;1.20;;;16.10;87.10;;;;;;4932967;29;20126;-78
2023/04/19 11:04:29;;;;;;;5.28;1.02;;;16.20;87.80;;;;;;4949095;29;20079;-76
2023/04/19 11:06:57;;;;;;;2.75;0.90;;;16.30;87.80;;;;;;4948912;29;20096;-78
2023/04/19 11:09:24;;;;;;;2.53;1.05;;;16.20;87.00;;;;;;4948642;29;20534;-79
2023/04/19 11:11:51;;;;;;;2.00;0.88;;;16.10;87.40;;;;;;4948895;29;20059;-79
2023/04/19 11:14:21;;;;;;;2.45;1.00;;;16.00;87.30;;;;;;4957337;28;20829;-76
2023/04/19 11:16:47;;;;;;;2.42;0.80;;;16.10;87.20;;;;;;4968205;28;20050;-75
2023/04/19 11:19:16;;;;;;;8.35;1.13;;;16.30;88.50;;;;;;4967748;28;20509;-78
2023/04/19 11:21:43;;;;;;;2.72;0.90;;;16.30;87.10;;;;;;4957276;28;20062;-77
2023/04/19 11:24:10;;;;;;;2.33;0.85;;;16.40;87.60;;;;;;5009410;28;20042;-78
2023/04/19 11:26:36;;;;;;;2.45;0.98;;;16.50;87.70;;;;;;5009538;28;20657;-77
2023/04/19 11:29:02;;;;;;;4.80;1.00;;;16.40;87.00;;;;;;5009661;28;20053;-76
2023/04/19 11:31:30;;;;;;;6.53;1.00;;;16.60;86.60;;;;;;5009381;28;20045;-76
2023/04/19 11:33:59;;;;;;;3.15;0.80;;;16.60;87.50;;;;;;5009460;28;20382;-78
2023/04/19 11:36:24;;;;;;;3.22;1.05;;;16.60;87.40;;;;;;5008339;28;20125;-77
2023/04/19 11:38:51;;;;;;;5.13;1.35;;;16.60;86.70;;;;;;5009166;28;20113;-81
2023/04/19 11:41:17;;;;;;;9.13;1.05;;;16.60;86.10;;;;;;5009730;28;20054;-81
2023/04/19 11:43:45;;;;;;;4.00;1.05;;;16.60;85.40;;;;;;5009587;28;20061;-80
2023/04/19 11:46:12;;;;;;;3.22;1.20;;;16.60;84.50;;;;;;4991910;28;20042;-78
2023/04/19 11:48:38;;;;;;;2.38;0.95;;;16.50;84.50;;;;;;5009074;28;20034;-81
2023/04/19 11:51:04;;;;;;;6.57;1.15;;;16.40;85.50;;;;;;5009660;28;20120;-77
2023/04/19 11:53:31;;;;;;;2.78;0.95;;;16.50;85.60;;;;;;5008679;28;20045;-78
2023/04/19 11:56:04;;;;;;;4.50;1.10;;;16.60;85.50;;;;;;5009356;28;20145;-79
2023/04/19 11:58:38;;;;;;;4.20;1.20;;;16.60;84.40;;;;;;5009411;28;20042;-76
2023/04/19 12:01:12;;;;;;;5.30;1.10;;;16.60;84.40;;;;;;5001663;28;20052;-77
2023/04/19 12:03:48;;;;;;;2.67;1.20;;;16.60;84.70;;;;;;5009238;28;20088;-78
2023/04/19 12:06:17;;;;;;;4.85;1.50;;;16.50;84.10;;;;;;5002477;28;20209;-79
2023/04/19 12:08:46;;;;;;;4.05;1.42;;;16.50;84.50;;;;;;4991595;28;20049;-78
2023/04/19 12:11:12;;;;;;;4.07;1.45;;;16.60;84.70;;;;;;5009210;28;20053;-81
2023/04/19 12:13:39;;;;;;;3.30;1.35;;;16.60;85.20;;;;;;5021344;28;20100;-81
2023/04/19 12:16:06;;;;;;;2.60;1.40;;;16.60;84.50;;;;;;5028664;28;20405;-82
2023/04/19 12:18:49;;;;;;;4.40;1.92;;;16.70;84.70;;;;;;5028134;28;20049;-80
2023/04/19 12:21:28;;;;;;;4.20;1.90;;;16.50;84.60;;;;;;5028587;28;20124;-79
2023/04/19 12:23:55;;;;;;;2.92;1.48;;;16.60;83.90;;;;;;5027674;28;20046;-78
2023/04/19 12:26:20;;;;;;;3.55;1.50;;;16.30;85.70;;;;;;5032266;28;20117;-80
2023/04/19 12:28:46;;;;;;;6.53;1.50;;;16.60;85.40;;;;;;5032404;28;20128;-78
2023/04/19 12:31:12;;;;;;;7.85;1.60;;;16.80;86.20;;;;;;5032529;28;20029;-79
2023/04/19 12:33:37;;;;;;;8.57;1.95;;;16.80;86.10;;;;;;5032573;28;20041;-79
2023/04/19 12:36:03;;;;;;;4.25;1.45;;;16.90;86.70;;;;;;5032458;28;20043;-78
2023/04/19 12:38:29;;;;;;;4.03;1.77;;;17.00;87.10;;;;;;5032495;28;20129;-77
2023/04/19 12:40:55;;;;;;;4.68;1.90;;;16.70;86.20;;;;;;5032340;28;20149;-79
2023/04/19 12:43:20;;;;;;;3.15;1.67;;;16.70;85.90;;;;;;5032221;28;20080;-82
2023/04/19 12:45:46;;;;;;;8.07;1.73;;;16.90;87.30;;;;;;5032357;28;20161;-83
2023/04/19 12:48:12;;;;;;;4.47;1.88;;;17.20;88.30;;;;;;5032570;28;20390;-81
2023/04/19 12:50:37;;;;;;;9.50;2.50;;;17.20;88.60;;;;;;5032248;28;20124;-78